Time;durP1;ratioP1;P1;durP2;ratioP2;P2;SDS_P1;SDS_P2;PMS_P1;PMS_P2;Temp;Humidity;BMP_temperature;BMP_pressure;BME280_temperature;BME280_humidity;BME280_pressure;Samples;Min_cycle;Max_cycle;Signal;HPM_P1;HPM_P2
2021/05/04 00:02:04;;;;;;;6.50;5.43;;;11.20;55.40;;;;;;5006067;28;20515;-45
2021/05/04 00:04:31;;;;;;;5.33;4.57;;;11.20;55.30;;;;;;5007908;28;20838;-45
2021/05/04 00:06:57;;;;;;;6.07;5.00;;;11.10;55.30;;;;;;5002536;28;20469;-46
2021/05/04 00:09:24;;;;;;;5.50;5.00;;;11.10;54.90;;;;;;5004996;28;21202;-45
2021/05/04 00:11:51;;;;;;;5.17;4.67;;;11.10;54.80;;;;;;5006336;28;20511;-46
2021/05/04 00:14:18;;;;;;;7.10;5.27;;;11.10;54.20;;;;;;5006389;28;20491;-45
2021/05/04 00:16:44;;;;;;;6.60;4.93;;;11.10;54.10;;;;;;5002359;28;20508;-45
2021/05/04 00:19:11;;;;;;;4.70;4.30;;;11.10;53.80;;;;;;5004285;28;20988;-45
2021/05/04 00:21:38;;;;;;;6.73;4.20;;;11.10;53.40;;;;;;5007017;28;20526;-46
2021/05/04 00:24:05;;;;;;;4.63;4.10;;;11.10;53.30;;;;;;5006058;28;20460;-45
2021/05/04 00:26:32;;;;;;;5.60;5.10;;;11.10;53.10;;;;;;5003291;28;20827;-46
2021/05/04 00:28:59;;;;;;;5.87;4.87;;;11.10;53.10;;;;;;5005081;28;20516;-45
2021/05/04 00:31:26;;;;;;;7.53;5.20;;;11.10;53.10;;;;;;5007727;28;20460;-46
2021/05/04 00:33:53;;;;;;;6.03;5.50;;;11.10;53.10;;;;;;5003814;28;20498;-45
2021/05/04 00:36:20;;;;;;;7.77;5.23;;;11.10;53.20;;;;;;5002381;28;20460;-45
2021/05/04 00:38:47;;;;;;;7.63;5.53;;;11.10;53.30;;;;;;5006771;28;20922;-45
2021/05/04 00:41:14;;;;;;;6.07;5.17;;;11.10;53.40;;;;;;5004061;28;20953;-45
2021/05/04 00:43:41;;;;;;;5.83;5.23;;;11.10;53.60;;;;;;5007871;28;20512;-45
2021/05/04 00:46:08;;;;;;;5.10;4.60;;;11.10;53.60;;;;;;5003504;28;21118;-45
2021/05/04 00:48:34;;;;;;;5.57;4.50;;;11.10;53.60;;;;;;5006253;28;20933;-45
2021/05/04 00:51:02;;;;;;;5.20;4.67;;;11.10;53.70;;;;;;5005642;28;20464;-45
2021/05/04 00:53:31;;;;;;;5.77;4.77;;;11.10;53.70;;;;;;5005777;28;20518;-46
2021/05/04 00:56:02;;;;;;;7.13;5.43;;;11.10;53.60;;;;;;5003272;28;20937;-46
2021/05/04 00:58:34;;;;;;;4.90;4.47;;;11.10;53.60;;;;;;5006368;28;20468;-45
2021/05/04 01:01:01;;;;;;;5.83;4.50;;;11.10;53.60;;;;;;5003574;28;20503;-45
2021/05/04 01:03:28;;;;;;;5.37;4.23;;;11.10;53.30;;;;;;5005622;28;20860;-45
2021/05/04 01:05:54;;;;;;;5.80;4.40;;;11.10;53.20;;;;;;5004676;28;20961;-46
2021/05/04 01:08:21;;;;;;;12.63;5.77;;;11.10;53.00;;;;;;5002755;28;20480;-45
2021/05/04 01:10:47;;;;;;;5.37;4.83;;;11.10;53.00;;;;;;5007165;28;20832;-45
2021/05/04 01:13:14;;;;;;;5.27;4.60;;;11.10;52.90;;;;;;5007499;28;20564;-45
2021/05/04 01:15:41;;;;;;;5.83;5.27;;;11.10;52.90;;;;;;4997033;28;20468;-45
2021/05/04 01:18:08;;;;;;;7.93;4.37;;;11.10;53.00;;;;;;5002826;28;20871;-45
2021/05/04 01:20:38;;;;;;;5.57;5.17;;;11.10;53.00;;;;;;5003556;28;20468;-46
2021/05/04 01:23:07;;;;;;;5.37;4.83;;;11.20;53.10;;;;;;5005196;28;20506;-45
2021/05/04 01:25:34;;;;;;;5.70;5.07;;;11.20;53.00;;;;;;5005434;28;21072;-46
2021/05/04 01:28:00;;;;;;;7.50;5.10;;;11.20;53.10;;;;;;5005838;28;20515;-46
2021/05/04 01:30:26;;;;;;;6.83;4.50;;;11.20;52.90;;;;;;5006511;28;20452;-45
2021/05/04 01:32:53;;;;;;;5.27;4.73;;;11.20;52.80;;;;;;5004295;28;20463;-46
2021/05/04 01:35:19;;;;;;;4.47;4.07;;;11.20;52.80;;;;;;5000460;28;20537;-45
2021/05/04 01:37:46;;;;;;;6.10;4.63;;;11.30;52.80;;;;;;5004251;28;20547;-45
2021/05/04 01:40:16;;;;;;;4.50;4.10;;;11.30;53.00;;;;;;5003553;28;20453;-45
2021/05/04 01:42:46;;;;;;;5.87;5.07;;;11.30;53.00;;;;;;5005689;28;20516;-46
2021/05/04 01:45:14;;;;;;;5.63;4.57;;;11.30;52.80;;;;;;5006313;28;20866;-46
2021/05/04 01:47:41;;;;;;;4.17;3.77;;;11.30;52.70;;;;;;5023767;28;20468;-45
2021/05/04 01:50:09;;;;;;;7.77;5.30;;;11.30;52.80;;;;;;5008291;28;20948;-45
2021/05/04 01:52:35;;;;;;;4.27;3.87;;;11.30;52.90;;;;;;5010169;28;20510;-45
2021/05/04 01:55:04;;;;;;;4.93;4.43;;;11.30;53.00;;;;;;5004666;28;20480;-45
2021/05/04 01:57:30;;;;;;;5.10;4.60;;;11.30;53.00;;;;;;5008698;28;20464;-45
2021/05/04 01:59:56;;;;;;;5.90;5.30;;;11.40;53.00;;;;;;5009579;28;20543;-45
2021/05/04 02:02:23;;;;;;;5.37;4.83;;;11.30;53.10;;;;;;5007312;28;20841;-46
2021/05/04 02:04:49;;;;;;;6.17;5.20;;;11.30;53.20;;;;;;5009930;28;20479;-46
2021/05/04 02:07:16;;;;;;;6.27;5.20;;;11.40;53.30;;;;;;5007742;28;20475;-46
2021/05/04 02:09:42;;;;;;;6.60;5.80;;;11.40;53.50;;;;;;5006886;28;20480;-45
2021/05/04 02:12:09;;;;;;;7.23;5.17;;;11.40;53.50;;;;;;5007029;28;20564;-45
2021/05/04 02:14:36;;;;;;;6.27;5.50;;;11.40;53.60;;;;;;5008742;28;20550;-45
2021/05/04 02:17:02;;;;;;;7.20;5.87;;;11.30;53.90;;;;;;5009495;28;20484;-45
2021/05/04 02:19:29;;;;;;;6.77;6.00;;;11.20;54.00;;;;;;5004392;28;20495;-46
2021/05/04 02:21:55;;;;;;;6.20;5.40;;;11.20;54.40;;;;;;5006978;28;20878;-45
2021/05/04 02:24:21;;;;;;;7.00;5.10;;;11.20;54.60;;;;;;5003891;28;20531;-45
2021/05/04 02:26:48;;;;;;;7.50;5.13;;;11.20;54.60;;;;;;5023931;28;20495;-46
2021/05/04 02:29:14;;;;;;;5.70;4.53;;;11.20;54.70;;;;;;5007842;28;20700;-45
2021/05/04 02:31:41;;;;;;;5.60;5.10;;;11.20;54.70;;;;;;5007620;28;20522;-46
2021/05/04 02:34:07;;;;;;;7.87;5.97;;;11.20;55.00;;;;;;5008227;28;20460;-45
2021/05/04 02:36:34;;;;;;;6.40;5.80;;;11.20;55.20;;;;;;5019608;28;20592;-45
2021/05/04 02:39:02;;;;;;;8.93;8.03;;;11.10;55.30;;;;;;5007593;28;20901;-46
2021/05/04 02:41:29;;;;;;;6.33;5.73;;;11.10;55.60;;;;;;5004470;28;20961;-45
2021/05/04 02:43:55;;;;;;;8.40;5.50;;;11.10;55.70;;;;;;5007921;28;20538;-46
2021/05/04 02:46:22;;;;;;;6.73;6.03;;;11.00;55.80;;;;;;5004177;28;20456;-46
2021/05/04 02:48:48;;;;;;;8.10;6.33;;;11.00;55.90;;;;;;5009307;28;20496;-45
2021/05/04 02:51:14;;;;;;;6.77;6.07;;;11.00;55.90;;;;;;5005235;28;20809;-46
2021/05/04 02:53:41;;;;;;;8.80;7.23;;;11.00;56.10;;;;;;5005897;28;20472;-46
2021/05/04 02:56:08;;;;;;;6.90;5.93;;;11.00;56.20;;;;;;5002116;28;21182;-46
2021/05/04 02:58:35;;;;;;;7.90;5.83;;;11.00;56.40;;;;;;5005702;28;20479;-46
2021/05/04 03:01:02;;;;;;;7.13;5.90;;;10.90;56.40;;;;;;5008040;28;20905;-46
2021/05/04 03:03:29;;;;;;;7.10;5.87;;;10.90;56.50;;;;;;5004686;28;20478;-46
2021/05/04 03:05:56;;;;;;;6.33;5.73;;;10.90;56.70;;;;;;5008323;28;20470;-46
2021/05/04 03:08:24;;;;;;;7.23;5.73;;;10.90;56.70;;;;;;5005422;28;20482;-46
2021/05/04 03:10:51;;;;;;;7.83;4.80;;;10.90;56.60;;;;;;5007441;28;20467;-46
2021/05/04 03:13:28;;;;;;;5.60;5.10;;;10.90;56.60;;;;;;5005581;28;20953;-46
2021/05/04 03:15:56;;;;;;;6.60;5.03;;;10.90;56.70;;;;;;5004805;28;20483;-45
2021/05/04 03:18:23;;;;;;;6.47;5.87;;;10.90;56.80;;;;;;5004791;28;20460;-46
2021/05/04 03:20:51;;;;;;;6.20;5.60;;;10.90;56.80;;;;;;5006416;28;20461;-46
2021/05/04 03:23:19;;;;;;;5.20;4.70;;;10.90;56.90;;;;;;5007501;28;20514;-46
2021/05/04 03:25:46;;;;;;;5.93;4.40;;;11.00;57.00;;;;;;5003730;28;20468;-45
2021/05/04 03:28:14;;;;;;;5.60;3.70;;;11.00;56.60;;;;;;5004581;28;20484;-46
2021/05/04 03:30:40;;;;;;;3.83;3.40;;;11.00;55.90;;;;;;5005564;28;20464;-46
2021/05/04 03:33:07;;;;;;;3.63;2.80;;;11.10;55.70;;;;;;5004453;28;20461;-46
2021/05/04 03:35:35;;;;;;;2.90;2.60;;;11.10;55.50;;;;;;5008209;28;20458;-45
2021/05/04 03:38:02;;;;;;;4.70;3.40;;;11.20;55.00;;;;;;5003538;28;20802;-46
2021/05/04 03:40:29;;;;;;;4.43;4.03;;;11.20;55.00;;;;;;5007563;28;20874;-47
2021/05/04 03:42:57;;;;;;;5.50;3.93;;;11.40;54.60;;;;;;5002304;28;20460;-46
2021/05/04 03:45:24;;;;;;;4.60;3.40;;;11.50;54.30;;;;;;5004147;28;20522;-46
2021/05/04 03:47:51;;;;;;;4.33;3.77;;;11.60;53.80;;;;;;5006257;28;20551;-46
2021/05/04 03:50:22;;;;;;;5.07;3.60;;;11.70;53.20;;;;;;5005081;28;20502;-46
2021/05/04 03:52:50;;;;;;;3.73;3.00;;;11.80;53.30;;;;;;5003876;28;20463;-47
2021/05/04 03:55:18;;;;;;;4.37;3.60;;;11.90;53.00;;;;;;5005348;28;20461;-45
2021/05/04 03:57:45;;;;;;;6.83;3.70;;;12.00;52.50;;;;;;5001200;28;20544;-46
2021/05/04 04:00:13;;;;;;;12.03;3.53;;;12.00;52.20;;;;;;5019086;28;20488;-45
2021/05/04 04:02:41;;;;;;;6.37;3.63;;;12.10;52.40;;;;;;5004967;28;20493;-46
2021/05/04 04:05:09;;;;;;;3.93;3.30;;;12.20;51.90;;;;;;5005268;28;20565;-45
2021/05/04 04:07:36;;;;;;;8.63;4.00;;;12.30;51.70;;;;;;5003199;28;20664;-45
2021/05/04 04:10:03;;;;;;;4.60;3.83;;;12.30;51.90;;;;;;5001793;28;20502;-45
2021/05/04 04:12:30;;;;;;;3.97;3.60;;;12.40;51.50;;;;;;5005461;28;20463;-46
2021/05/04 04:14:56;;;;;;;5.80;3.93;;;12.40;51.20;;;;;;5003650;28;20941;-46
2021/05/04 04:17:24;;;;;;;5.10;3.77;;;12.40;51.10;;;;;;5001663;28;20464;-46
2021/05/04 04:19:51;;;;;;;3.93;3.60;;;12.50;51.20;;;;;;5006244;28;20553;-46
2021/05/04 04:22:17;;;;;;;3.90;3.30;;;12.50;50.90;;;;;;5006595;28;20795;-46
2021/05/04 04:24:44;;;;;;;5.40;3.60;;;12.50;50.30;;;;;;5003351;28;20467;-46
2021/05/04 04:27:11;;;;;;;6.13;4.50;;;12.60;50.50;;;;;;5003787;28;20861;-46
2021/05/04 04:29:38;;;;;;;4.73;3.90;;;12.60;50.50;;;;;;5006096;28;20522;-46
2021/05/04 04:32:05;;;;;;;3.97;3.00;;;12.60;50.30;;;;;;5003005;28;20825;-46
2021/05/04 04:34:32;;;;;;;5.93;3.77;;;12.60;50.30;;;;;;5003294;28;20465;-46
2021/05/04 04:36:58;;;;;;;4.50;3.10;;;12.70;50.50;;;;;;5001303;28;20480;-46
2021/05/04 04:39:25;;;;;;;4.17;3.13;;;12.70;49.60;;;;;;5004408;28;21264;-45
2021/05/04 04:41:52;;;;;;;4.87;3.40;;;12.70;50.20;;;;;;5003628;28;20464;-46
2021/05/04 04:44:18;;;;;;;6.23;3.10;;;12.70;49.70;;;;;;5004171;28;20547;-46
2021/05/04 04:46:45;;;;;;;4.20;3.27;;;12.70;49.80;;;;;;5000131;28;20461;-46
2021/05/04 04:49:15;;;;;;;4.47;3.30;;;12.70;49.90;;;;;;5003227;28;20488;-46
2021/05/04 04:51:42;;;;;;;4.00;3.37;;;12.70;49.60;;;;;;5002027;28;20457;-46
2021/05/04 04:54:09;;;;;;;5.40;2.87;;;12.70;49.70;;;;;;5003379;28;20547;-46
2021/05/04 04:56:35;;;;;;;4.07;2.80;;;12.70;49.90;;;;;;5003684;28;21134;-46
2021/05/04 04:59:03;;;;;;;3.27;2.57;;;12.80;49.60;;;;;;5006544;28;20894;-46
2021/05/04 05:01:30;;;;;;;3.17;2.80;;;12.80;49.50;;;;;;5006500;28;20472;-46
2021/05/04 05:03:57;;;;;;;3.40;3.07;;;12.80;49.40;;;;;;5005159;28;20464;-46
2021/05/04 05:06:23;;;;;;;4.97;3.20;;;12.80;49.60;;;;;;5003530;28;20516;-45
2021/05/04 05:08:51;;;;;;;5.03;2.57;;;12.90;49.70;;;;;;5005321;28;20499;-46
2021/05/04 05:11:18;;;;;;;3.83;3.43;;;12.90;49.70;;;;;;5004414;28;20459;-45
2021/05/04 05:13:48;;;;;;;7.63;2.73;;;12.90;49.30;;;;;;5005220;28;20492;-45
2021/05/04 05:16:17;;;;;;;5.10;3.17;;;12.90;48.90;;;;;;5003411;28;20479;-44
2021/05/04 05:18:51;;;;;;;3.10;2.90;;;12.90;49.30;;;;;;5003402;28;21043;-45
2021/05/04 05:21:18;;;;;;;2.90;2.57;;;12.90;49.60;;;;;;5006257;28;20546;-45
2021/05/04 05:23:44;;;;;;;3.00;2.63;;;12.90;49.20;;;;;;5008248;28;20566;-45
2021/05/04 05:26:12;;;;;;;2.67;2.47;;;12.90;49.10;;;;;;5007287;28;20979;-44
2021/05/04 05:28:39;;;;;;;4.60;2.90;;;12.90;49.00;;;;;;5005020;28;20492;-46
2021/05/04 05:31:06;;;;;;;3.97;2.30;;;12.90;48.50;;;;;;5008162;28;20942;-46
2021/05/04 05:33:33;;;;;;;5.23;3.00;;;12.90;48.80;;;;;;5007828;28;20470;-45
2021/05/04 05:35:59;;;;;;;4.57;3.00;;;12.90;49.10;;;;;;5011484;28;20487;-46
2021/05/04 05:38:33;;;;;;;6.70;3.60;;;12.90;48.90;;;;;;5010040;28;20550;-46
2021/05/04 05:40:59;;;;;;;3.10;2.47;;;12.90;49.30;;;;;;5008560;28;20824;-45
2021/05/04 05:43:26;;;;;;;4.67;2.80;;;12.90;49.40;;;;;;5011481;28;20454;-46
2021/05/04 05:45:53;;;;;;;4.83;2.70;;;12.90;48.80;;;;;;5024233;28;20495;-46
2021/05/04 05:48:19;;;;;;;5.40;3.03;;;12.90;49.00;;;;;;5006738;28;20551;-46
2021/05/04 05:50:46;;;;;;;5.00;2.53;;;12.90;48.50;;;;;;5010347;28;20452;-46
2021/05/04 05:53:13;;;;;;;2.80;2.40;;;13.00;48.40;;;;;;5010155;28;20755;-46
2021/05/04 05:55:40;;;;;;;8.10;2.50;;;12.90;48.50;;;;;;5011866;28;20543;-46
2021/05/04 05:58:06;;;;;;;3.63;2.60;;;12.90;49.00;;;;;;5006160;28;20506;-45
2021/05/04 06:00:33;;;;;;;3.20;2.90;;;13.00;48.90;;;;;;5004108;28;20985;-46
2021/05/04 06:03:02;;;;;;;4.53;2.80;;;13.00;49.00;;;;;;5008197;28;20460;-46
2021/05/04 06:05:31;;;;;;;2.97;2.60;;;13.00;48.80;;;;;;5007188;28;21355;-46
2021/05/04 06:07:58;;;;;;;3.57;3.00;;;13.00;49.20;;;;;;5005613;28;20453;-46
2021/05/04 06:10:24;;;;;;;2.87;2.10;;;13.10;48.70;;;;;;5002847;28;20997;-46
2021/05/04 06:13:08;;;;;;;2.70;2.50;;;13.10;48.30;;;;;;5007316;28;20463;-46
2021/05/04 06:15:36;;;;;;;2.53;2.33;;;13.10;48.60;;;;;;5002251;28;20488;-45
2021/05/04 06:18:03;;;;;;;3.03;2.43;;;13.20;48.50;;;;;;5007010;28;20819;-45
2021/05/04 06:20:29;;;;;;;2.97;1.73;;;13.20;48.40;;;;;;5004393;28;20965;-46
2021/05/04 06:22:56;;;;;;;3.90;2.50;;;13.20;48.10;;;;;;5004603;28;20961;-46
2021/05/04 06:25:22;;;;;;;5.20;2.30;;;13.20;48.10;;;;;;5026122;28;20456;-46
2021/05/04 06:27:49;;;;;;;2.87;2.50;;;13.30;48.30;;;;;;5001883;28;20472;-46
2021/05/04 06:30:16;;;;;;;2.00;1.90;;;13.30;47.10;;;;;;5009609;28;20494;-46
2021/05/04 06:32:43;;;;;;;3.40;2.10;;;13.30;46.60;;;;;;5007036;28;20541;-46
2021/05/04 06:35:15;;;;;;;5.53;2.50;;;13.30;46.70;;;;;;5004594;28;20463;-46
2021/05/04 06:37:41;;;;;;;4.40;2.33;;;13.30;47.40;;;;;;5005439;28;20547;-46
2021/05/04 06:40:09;;;;;;;2.33;2.00;;;13.40;47.60;;;;;;5007766;28;20461;-46
2021/05/04 06:42:35;;;;;;;3.17;1.70;;;13.40;48.10;;;;;;5011104;28;20992;-46
2021/05/04 06:45:03;;;;;;;5.90;2.13;;;13.30;48.80;;;;;;5004769;28;20476;-46
2021/05/04 06:47:30;;;;;;;2.50;2.13;;;13.30;48.70;;;;;;4998884;28;20467;-46
2021/05/04 06:49:56;;;;;;;3.00;1.80;;;13.30;48.50;;;;;;5009315;28;20488;-46
2021/05/04 06:52:23;;;;;;;1.90;1.60;;;13.20;49.80;;;;;;5007581;28;20949;-46
2021/05/04 06:54:49;;;;;;;2.30;2.10;;;13.20;50.60;;;;;;5006017;28;20456;-46
2021/05/04 06:57:16;;;;;;;67.77;7.20;;;13.10;51.30;;;;;;5005101;28;20496;-46
2021/05/04 06:59:43;;;;;;;1.80;1.50;;;13.00;51.90;;;;;;5003105;28;20472;-46
2021/05/04 07:02:09;;;;;;;2.43;1.70;;;12.90;51.70;;;;;;5004954;28;20555;-46
2021/05/04 07:04:36;;;;;;;2.20;1.70;;;12.90;52.10;;;;;;5007445;28;20472;-46
2021/05/04 07:07:03;;;;;;;2.93;2.73;;;12.80;53.30;;;;;;5007204;28;21005;-46
2021/05/04 07:09:29;;;;;;;1.60;1.27;;;12.80;54.00;;;;;;5008561;28;20523;-46
2021/05/04 07:11:56;;;;;;;3.80;1.50;;;12.70;54.20;;;;;;5012228;28;20801;-46
2021/05/04 07:14:22;;;;;;;2.70;2.50;;;12.70;55.70;;;;;;5008451;28;21736;-46
2021/05/04 07:16:51;;;;;;;3.37;1.60;;;12.60;55.60;;;;;;5007281;28;20523;-46
2021/05/04 07:19:17;;;;;;;4.10;1.43;;;12.60;56.50;;;;;;5007043;28;20464;-46
2021/05/04 07:21:44;;;;;;;1.63;1.00;;;12.60;56.70;;;;;;5007046;28;20470;-46
2021/05/04 07:24:11;;;;;;;1.63;1.20;;;12.50;55.70;;;;;;5007534;28;20543;-46
2021/05/04 07:26:39;;;;;;;3.00;1.40;;;12.40;56.00;;;;;;5006836;28;20468;-46
2021/05/04 07:29:10;;;;;;;1.70;1.20;;;12.40;57.00;;;;;;4998459;28;20659;-46
2021/05/04 07:31:37;;;;;;;3.07;1.53;;;12.30;57.50;;;;;;5007583;28;20467;-46
2021/05/04 07:34:04;;;;;;;4.00;1.37;;;12.30;59.00;;;;;;5002422;28;20453;-46
2021/05/04 07:36:31;;;;;;;1.90;1.70;;;12.20;59.50;;;;;;4997715;28;20461;-46
2021/05/04 07:38:58;;;;;;;3.00;2.40;;;12.10;58.80;;;;;;5005585;28;20526;-46
2021/05/04 07:41:26;;;;;;;1.83;1.73;;;12.10;59.00;;;;;;5010126;28;20560;-46
2021/05/04 07:43:52;;;;;;;2.00;1.40;;;12.00;60.10;;;;;;5008358;28;20484;-46
2021/05/04 07:46:19;;;;;;;1.90;1.47;;;12.00;59.60;;;;;;5003138;28;20575;-46
2021/05/04 07:48:45;;;;;;;1.87;1.43;;;12.00;59.70;;;;;;5003683;28;21015;-45
2021/05/04 07:51:16;;;;;;;2.00;1.47;;;11.90;59.90;;;;;;5006997;28;20514;-46
2021/05/04 07:53:42;;;;;;;2.20;1.83;;;11.90;60.30;;;;;;5004156;28;20556;-45
2021/05/04 07:56:08;;;;;;;2.40;1.40;;;11.80;60.60;;;;;;5003938;28;20464;-44
2021/05/04 07:58:35;;;;;;;1.50;1.40;;;11.90;60.80;;;;;;5007021;28;20459;-45
2021/05/04 08:01:02;;;;;;;1.90;1.20;;;11.80;60.80;;;;;;5005965;28;20500;-46
2021/05/04 08:03:29;;;;;;;4.97;1.37;;;11.90;60.60;;;;;;5004161;28;20471;-46
2021/05/04 08:05:58;;;;;;;1.97;1.60;;;11.90;61.00;;;;;;5008024;28;20950;-46
2021/05/04 08:08:24;;;;;;;1.83;1.70;;;11.80;61.20;;;;;;5005386;28;20452;-46
2021/05/04 08:10:51;;;;;;;2.80;1.23;;;11.80;61.30;;;;;;5003525;28;20460;-46
2021/05/04 08:13:19;;;;;;;1.73;1.47;;;11.80;62.10;;;;;;5008671;28;20463;-46
2021/05/04 08:15:46;;;;;;;1.93;1.47;;;11.90;61.80;;;;;;5002253;28;20480;-46
2021/05/04 08:18:14;;;;;;;2.20;2.00;;;11.90;61.20;;;;;;5008212;28;20464;-46
2021/05/04 08:21:15;;;;;;;2.47;1.67;;;11.90;61.50;;;;;;5005203;28;20461;-46
2021/05/04 08:23:34;;;;;;;2.40;1.93;;;11.90;61.20;;;;;;5005462;28;20902;-46
2021/05/04 08:26:00;;;;;;;1.63;1.53;;;11.90;61.50;;;;;;5006439;28;20602;-46
2021/05/04 08:28:27;;;;;;;2.23;1.40;;;11.90;61.30;;;;;;5000612;28;20461;-46
2021/05/04 08:30:54;;;;;;;1.50;1.40;;;12.00;60.50;;;;;;5003514;28;20551;-46
2021/05/04 08:33:21;;;;;;;2.27;1.77;;;12.00;60.80;;;;;;5009552;28;20735;-46
2021/05/04 08:35:47;;;;;;;1.20;1.10;;;12.00;61.10;;;;;;5009036;28;20564;-46
2021/05/04 08:38:14;;;;;;;2.50;1.60;;;12.00;61.50;;;;;;5009070;28;20460;-45
2021/05/04 08:40:41;;;;;;;2.87;1.70;;;12.00;61.60;;;;;;5007652;28;20534;-44
2021/05/04 08:43:07;;;;;;;4.33;2.37;;;12.10;61.60;;;;;;5008976;28;20448;-46
2021/05/04 08:45:34;;;;;;;4.90;1.87;;;12.10;61.80;;;;;;5007528;28;20455;-46
2021/05/04 08:48:02;;;;;;;2.10;1.53;;;12.10;61.40;;;;;;5009195;28;20966;-46
2021/05/04 08:50:30;;;;;;;2.30;1.80;;;12.20;61.90;;;;;;5005762;28;20492;-46
2021/05/04 08:52:56;;;;;;;1.27;1.17;;;12.20;61.40;;;;;;5004942;28;20483;-46
2021/05/04 08:55:24;;;;;;;1.63;1.53;;;12.30;61.70;;;;;;5008200;28;20459;-46
2021/05/04 08:57:50;;;;;;;2.20;1.33;;;12.30;61.80;;;;;;5010119;28;20967;-46
2021/05/04 09:00:17;;;;;;;1.57;1.47;;;12.30;61.80;;;;;;5008549;28;20463;-46
2021/05/04 09:02:57;;;;;;;2.97;1.43;;;12.30;62.10;;;;;;5007221;28;20474;-45
2021/05/04 09:05:24;;;;;;;2.53;1.30;;;12.30;62.80;;;;;;5009273;28;20941;-45
2021/05/04 09:07:51;;;;;;;1.53;1.40;;;12.30;62.60;;;;;;5007849;28;20543;-45
2021/05/04 09:13:00;;;;;;;2.27;1.60;;;12.30;63.00;;;;;;5008489;28;20827;-46
2021/05/04 09:15:30;;;;;;;1.47;1.37;;;12.30;62.80;;;;;;5010497;28;20479;-46
2021/05/04 09:18:05;;;;;;;1.60;1.50;;;12.20;62.90;;;;;;5003340;28;20461;-46
2021/05/04 09:20:50;;;;;;;4.50;1.80;;;12.10;63.30;;;;;;5005771;28;20462;-46
2021/05/04 09:23:16;;;;;;;1.50;1.30;;;12.10;63.80;;;;;;5010064;28;20466;-46
2021/05/04 09:25:43;;;;;;;2.20;1.27;;;12.00;64.30;;;;;;5013764;28;20464;-46
2021/05/04 09:28:13;;;;;;;1.57;1.47;;;12.00;64.40;;;;;;5007697;28;20459;-46
2021/05/04 09:30:50;;;;;;;2.00;1.80;;;11.90;64.50;;;;;;5005955;28;20607;-46
2021/05/04 09:33:16;;;;;;;1.53;1.43;;;11.90;64.90;;;;;;5008977;28;20543;-46
2021/05/04 09:35:44;;;;;;;2.07;1.50;;;12.00;65.10;;;;;;5005997;28;20488;-46
2021/05/04 09:38:13;;;;;;;2.33;1.80;;;12.00;65.20;;;;;;5008721;28;20543;-46
2021/05/04 09:40:43;;;;;;;1.90;1.80;;;12.00;65.30;;;;;;5009568;28;20463;-46
2021/05/04 09:43:18;;;;;;;2.20;2.00;;;12.00;65.20;;;;;;5011861;28;20810;-46
2021/05/04 09:45:51;;;;;;;1.73;1.63;;;12.00;65.20;;;;;;5009503;28;20460;-46
2021/05/04 09:48:21;;;;;;;3.60;2.00;;;12.00;65.40;;;;;;5006244;28;20496;-46
2021/05/04 09:50:53;;;;;;;4.93;1.50;;;12.00;65.80;;;;;;5011663;28;20526;-46
2021/05/04 09:53:42;;;;;;;2.13;1.50;;;12.00;65.60;;;;;;5006845;28;20475;-46
2021/05/04 09:56:10;;;;;;;1.63;1.53;;;12.00;65.90;;;;;;5008459;28;20465;-45
2021/05/04 09:58:40;;;;;;;2.10;1.73;;;12.00;65.80;;;;;;5004632;28;20518;-46
2021/05/04 10:01:12;;;;;;;3.63;1.90;;;12.10;65.70;;;;;;5008143;28;20448;-46
2021/05/04 10:03:40;;;;;;;1.93;1.73;;;12.00;65.80;;;;;;5003779;28;20452;-45
2021/05/04 10:06:07;;;;;;;1.97;1.63;;;12.00;66.10;;;;;;5004714;28;20470;-46
2021/05/04 10:08:35;;;;;;;1.70;1.60;;;12.00;65.90;;;;;;5006554;28;20988;-46
2021/05/04 10:11:09;;;;;;;1.83;1.67;;;11.90;66.40;;;;;;5005411;28;20995;-46
2021/05/04 10:13:38;;;;;;;1.57;1.47;;;11.90;66.50;;;;;;5010878;28;20977;-46
2021/05/04 10:16:06;;;;;;;1.90;1.63;;;11.90;66.90;;;;;;5004294;28;20850;-46
2021/05/04 10:18:33;;;;;;;1.67;1.50;;;11.90;66.90;;;;;;5010320;28;20793;-46
2021/05/04 10:21:05;;;;;;;1.97;1.77;;;11.90;67.10;;;;;;5006342;28;20968;-46
2021/05/04 10:23:32;;;;;;;2.13;1.93;;;11.90;67.10;;;;;;5005868;28;20480;-46
2021/05/04 10:26:05;;;;;;;2.27;2.00;;;11.80;67.20;;;;;;5010624;28;20459;-46
2021/05/04 10:28:37;;;;;;;1.60;1.50;;;11.80;67.50;;;;;;5007556;28;20796;-46
2021/05/04 10:31:09;;;;;;;2.30;2.10;;;11.80;67.70;;;;;;5006122;28;20462;-45
2021/05/04 10:33:39;;;;;;;1.63;1.53;;;11.80;67.80;;;;;;5005873;28;20471;-45
2021/05/04 10:36:33;;;;;;;2.17;1.97;;;11.70;68.10;;;;;;5002690;28;21045;-45
2021/05/04 10:39:01;;;;;;;3.20;1.90;;;11.70;68.30;;;;;;5004263;28;20521;-45
2021/05/04 10:41:28;;;;;;;2.03;1.83;;;11.70;68.60;;;;;;5005064;28;20452;-45
2021/05/04 10:44:03;;;;;;;1.90;1.70;;;11.80;68.90;;;;;;5020507;28;20457;-45
2021/05/04 10:46:39;;;;;;;2.67;2.20;;;11.80;68.40;;;;;;5009208;28;20518;-45
2021/05/04 10:49:07;;;;;;;3.20;2.40;;;11.80;68.20;;;;;;5007554;28;20545;-45
2021/05/04 10:51:46;;;;;;;2.87;2.63;;;11.70;68.50;;;;;;5008303;28;20456;-45
2021/05/04 10:54:15;;;;;;;2.20;2.00;;;11.70;68.50;;;;;;5006886;28;20456;-45
2021/05/04 10:56:44;;;;;;;3.87;2.93;;;11.80;68.60;;;;;;5021597;28;20967;-45
2021/05/04 10:59:32;;;;;;;2.23;1.80;;;11.80;68.70;;;;;;5007766;28;20456;-45
2021/05/04 11:02:16;;;;;;;3.57;1.97;;;11.80;69.10;;;;;;5009140;28;20456;-45
2021/05/04 11:04:51;;;;;;;1.77;1.67;;;11.90;68.70;;;;;;5005486;28;20602;-45
2021/05/04 11:08:12;;;;;;;2.93;2.10;;;12.00;68.60;;;;;;5005584;28;20448;-45
2021/05/04 11:10:38;;;;;;;3.07;2.23;;;12.00;68.30;;;;;;4999679;28;20559;-45
2021/05/04 11:13:06;;;;;;;2.03;1.93;;;12.10;68.20;;;;;;5008515;28;20471;-45
2021/05/04 11:15:34;;;;;;;2.33;2.13;;;12.10;67.90;;;;;;5009758;28;20551;-45
2021/05/04 11:18:00;;;;;;;3.50;2.10;;;12.10;67.80;;;;;;5006090;28;20453;-45
2021/05/04 11:20:38;;;;;;;3.00;2.00;;;12.10;67.70;;;;;;5006728;28;20456;-45
2021/05/04 11:23:09;;;;;;;2.00;1.90;;;12.10;67.90;;;;;;5007244;28;20467;-45
2021/05/04 11:25:40;;;;;;;3.20;2.30;;;12.10;68.10;;;;;;5004054;28;20551;-45
2021/05/04 11:28:07;;;;;;;2.43;2.23;;;12.10;68.10;;;;;;5006247;28;20460;-45
2021/05/04 11:30:40;;;;;;;3.07;2.20;;;12.20;68.00;;;;;;5007049;28;20614;-45
2021/05/04 11:33:30;;;;;;;3.73;2.10;;;12.20;68.10;;;;;;5011045;28;20456;-45
2021/05/04 11:35:58;;;;;;;2.07;1.97;;;12.20;67.90;;;;;;5007187;28;20510;-45
2021/05/04 11:38:26;;;;;;;4.23;2.30;;;12.30;67.70;;;;;;5011424;28;20947;-45
2021/05/04 11:40:53;;;;;;;2.33;2.13;;;12.30;67.40;;;;;;5008169;28;20460;-45
2021/05/04 11:43:21;;;;;;;2.40;2.20;;;12.40;67.40;;;;;;5008703;28;20464;-45
2021/05/04 11:45:49;;;;;;;5.07;3.37;;;12.40;67.20;;;;;;5008627;28;20552;-45
2021/05/04 11:48:17;;;;;;;6.33;2.37;;;12.40;67.50;;;;;;5007076;28;20976;-45
2021/05/04 11:50:47;;;;;;;2.73;2.03;;;12.50;67.30;;;;;;5008398;28;20485;-45
2021/05/04 11:53:16;;;;;;;2.60;2.07;;;12.50;66.40;;;;;;5008096;28;20472;-45
2021/05/04 11:55:45;;;;;;;3.40;2.23;;;12.50;66.60;;;;;;5002369;28;20463;-46
2021/05/04 11:58:26;;;;;;;3.30;2.43;;;12.60;66.80;;;;;;5006122;28;20960;-46
2021/05/04 12:01:06;;;;;;;2.50;2.30;;;12.70;66.70;;;;;;5005945;28;20555;-46
2021/05/04 12:03:34;;;;;;;2.97;1.57;;;12.80;66.50;;;;;;5010024;28;20488;-46
2021/05/04 12:06:03;;;;;;;4.87;3.27;;;12.90;66.40;;;;;;5008346;28;20504;-46
2021/05/04 12:08:30;;;;;;;6.53;2.00;;;13.00;65.60;;;;;;5006744;28;20469;-46
2021/05/04 12:10:56;;;;;;;1.80;1.70;;;13.10;65.60;;;;;;5005663;28;20496;-46
2021/05/04 12:13:41;;;;;;;2.53;2.33;;;13.20;65.40;;;;;;5003330;28;21088;-46
2021/05/04 12:16:08;;;;;;;3.90;1.53;;;13.20;65.00;;;;;;5001735;28;20476;-46
2021/05/04 12:18:37;;;;;;;4.00;1.60;;;13.20;64.50;;;;;;5004925;28;20468;-47
2021/05/04 12:21:09;;;;;;;4.90;2.07;;;13.20;64.90;;;;;;5000721;28;20973;-46
2021/05/04 12:23:38;;;;;;;2.93;2.17;;;13.30;65.00;;;;;;5006615;28;20487;-45
2021/05/04 12:26:13;;;;;;;2.50;2.00;;;13.40;64.50;;;;;;5008211;28;20453;-46
2021/05/04 12:28:51;;;;;;;2.90;1.73;;;13.50;63.90;;;;;;5008547;28;21178;-46
2021/05/04 12:31:28;;;;;;;3.00;1.80;;;13.60;63.90;;;;;;5007420;28;20444;-46
2021/05/04 12:33:55;;;;;;;2.47;1.90;;;13.70;63.30;;;;;;5008326;28;21035;-46
2021/05/04 12:39:20;;;;;;;4.20;2.07;;;13.80;63.60;;;;;;5006690;28;20669;-46
2021/05/04 12:41:50;;;;;;;2.13;1.87;;;13.80;63.30;;;;;;5037652;28;20842;-46
2021/05/04 12:46:48;;;;;;;2.00;1.80;;;13.80;64.20;;;;;;5004270;28;20818;-45
2021/05/04 12:49:16;;;;;;;1.47;1.37;;;13.80;64.10;;;;;;5006382;28;20500;-46
2021/05/04 12:51:50;;;;;;;2.30;1.77;;;13.90;63.60;;;;;;5005605;28;20483;-46
2021/05/04 12:54:20;;;;;;;2.10;1.90;;;14.00;63.40;;;;;;5007508;28;20465;-45
2021/05/04 12:56:49;;;;;;;4.67;2.30;;;14.10;62.70;;;;;;5010428;28;20443;-45
2021/05/04 12:59:32;;;;;;;1.97;1.80;;;14.30;62.40;;;;;;5004795;28;20522;-46
2021/05/04 13:02:05;;;;;;;6.70;2.73;;;14.40;61.40;;;;;;5005364;28;20484;-46